Eastern, Illinois
Current Conditions -  °F | °C
As of 9:53 AM on Wednesday 22 Oct 2014 (Local Time) from KMWA Reporting Station
Clear Clear  
Wind Chill: 52°   Ceiling: Unl
Heat Index: 52°   Visibility: 20mi
Dew Point: 45°   Wind: 12mph
Humidity: 76%   Direction: 100°E
Pressure: 30.33"   Gusts: NA
Location:  38.0175°N, 88.9351°W
Report Text: KMWA 221453Z 10010KT 20SM SKC 11/07 A3033
Loading
Personal Weather Stations






























Interactive Weather Map
Tropical Storm Tracking
New forecast layout! Learn more

10-Day Weather Forecast

Advertisements
Track Severe Weather on mobile